• Join FlightAware (Why Join?)
  • Login
  • US Flag 
 
06:05PM EST


 

Airport Tracker/Info


-or-


 

Live Flight TrackerFlight Track Log ✈ N487SR ✈ 09-May-2013 ✈ KUES - KALO

Flight Track Log - Related Links

Times and Time Zones

All times are in EDT time to prevent confusion due to time zone crossing. See the N487SR flight status page for this flight to view local times or setup timezone preferences in your user account.

Time Position Orientation Groundspeed Altitude Reporting Facility
EDT Latitude Longitude Course Direction KTS MPH feet Rate Location/Type
04:36PM 43.0500 -88.2333 324° Northwest 107 123 1,300  Level KMKE
04:37PM 43.0833 -88.2667 324° Northwest 136 157 2,200 720 Climbing KMKE
04:38PM 43.0778 -88.2922 253° West 142 163 2,600 660 Climbing Chicago Center
04:39PM 43.0689 -88.3489 258° West 149 171 3,300 720 Climbing Chicago Center
04:40PM 43.0617 -88.4053 260° West 150 173 4,100 720 Climbing Chicago Center
04:41PM 43.0575 -88.4611 264° West 149 171 4,800 660 Climbing Chicago Center
04:42PM 43.0508 -88.5161 261° West 147 169 5,500 480 Climbing Chicago Center
04:43PM 43.0442 -88.5708 261° West 146 168 5,900 240 Climbing Chicago Center
04:44PM 43.0364 -88.6414 261° West 155 178 6,000  Climbing Chicago Center
04:45PM 43.0292 -88.7031 261° West 162 186 6,000 -60 Level Chicago Center
04:46PM 43.0239 -88.7636 263° West 161 185 5,900  Descending Chicago Center
04:47PM 43.0156 -88.8258 260° West 159 183 6,000  Climbing Chicago Center
04:48PM 43.0097 -88.8817 262° West 158 182 6,000  Level Chicago Center
04:49PM 43.0022 -88.9481 261° West 154 177 6,000 240 Level Chicago Center
04:50PM 42.9961 -89.0025 261° West 150 173 6,500 420 Climbing Chicago Center
04:51PM 42.9911 -89.0519 262° West 139 160 6,900 420 Climbing Chicago Center
04:52PM 42.9853 -89.1000 261° West 129 148 7,400 420 Climbing Chicago Center
04:53PM 42.9800 -89.1483 262° West 128 147 7,800 240 Climbing Chicago Center
04:54PM 42.9736 -89.2014 261° West 139 160 8,000 60 Climbing Chicago Center
04:55PM 42.9656 -89.2686 261° West 153 176 8,000  Level Chicago Center
04:56PM 42.9592 -89.3281 262° West 158 182 8,000  Level Chicago Center
04:57PM 42.9514 -89.3881 260° West 161 185 8,000  Level Chicago Center
04:58PM 42.9450 -89.4475 262° West 158 182 8,000  Level Chicago Center
04:59PM 42.9375 -89.5067 260° West 158 182 8,000  Level Chicago Center
05:00PM 42.9294 -89.5781 261° West 163 188 8,000  Level Chicago Center
05:02PM 42.9231 -89.6383 262° West 162 186 8,000 -60 Level Chicago Center
05:03PM 42.9156 -89.6989 260° West 163 188 7,900  Descending Chicago Center
05:04PM 42.9083 -89.7589 261° West 162 186 8,000  Climbing Chicago Center
05:05PM 42.9006 -89.8186 260° West 160 184 8,000  Level Chicago Center
05:06PM 42.8942 -89.8917 263° West 165 190 8,000  Level Chicago Center
05:07PM 42.8872 -89.9464 260° West 164 189 8,000  Level Chicago Center
05:08PM 42.8794 -90.0061 260° West 162 186 8,000  Level Chicago Center
05:09PM 42.8711 -90.0767 261° West 160 184 8,000  Level Chicago Center
05:10PM 42.8628 -90.1353 259° West 159 183 8,000  Level Chicago Center
05:11PM 42.8578 -90.1942 263° West 158 182 8,000  Level Chicago Center
05:12PM 42.8503 -90.2517 260° West 155 178 8,000  Level Chicago Center
05:13PM 42.8428 -90.3092 260° West 156 180 8,000  Level Chicago Center
05:14PM 42.8325 -90.3767 258° West 153 176 8,000  Level Chicago Center
05:15PM 42.8253 -90.4356 261° West 157 181 8,000 -60 Level Chicago Center
05:16PM 42.8181 -90.4950 261° West 160 184 7,900  Descending Chicago Center
05:17PM 42.8114 -90.5531 261° West 158 182 8,000  Climbing Chicago Center
05:18PM 42.8028 -90.6111 259° West 157 181 8,000 -120 Level Chicago Center
05:19PM 42.7933 -90.6806 260° West 157 181 7,800 -60 Descending Chicago Center
05:20PM 42.7858 -90.7392 260° West 158 182 7,900  Climbing Chicago Center
05:21PM 42.7789 -90.7983 261° West 159 183 7,800  Descending Chicago Center
05:22PM 42.7703 -90.8553 258° West 156 180 7,900  Climbing Chicago Center
05:23PM 42.7633 -90.9144 261° West 158 182 7,900 -60 Level Chicago Center
05:24PM 42.7536 -90.9825 259° West 155 178 7,800  Descending Chicago Center
05:25PM 42.7461 -91.0411 260° West 157 181 7,900  Climbing Chicago Center
05:26PM 42.7381 -91.1000 259° West 160 184 7,800  Descending Chicago Center
05:27PM 42.7303 -91.1578 260° West 157 181 7,900  Climbing Chicago Center
05:28PM 42.7228 -91.2167 260° West 158 182 7,900  Level Chicago Center
05:29PM 42.7131 -91.2853 259° West 157 181 7,900  Level Chicago Center
05:30PM 42.7056 -91.3436 260° West 157 181 8,000  Climbing Chicago Center
05:32PM 42.6978 -91.4019 260° West 157 181 8,000 -180 Level Chicago Center
05:33PM 42.6897 -91.4608 259° West 158 182 7,700 -300 Descending Chicago Center
05:34PM 42.6808 -91.5228 259° West 163 188 7,400 -360 Descending Chicago Center
05:35PM 42.6722 -91.5864 260° West 167 192 7,000 -420 Descending Chicago Center
05:36PM 42.6642 -91.6506 260° West 170 196 6,600 -540 Descending Chicago Center
05:37PM 42.6536 -91.7219 259° West 164 189 6,000 -540 Descending Chicago Center
05:38PM 42.6447 -91.7822 259° West 163 188 5,500 -480 Descending Chicago Center
05:39PM 42.6367 -91.8414 260° West 162 186 5,100 -480 Descending Chicago Center
05:40PM 42.6272 -91.9017 258° West 162 186 4,600 -540 Descending Chicago Center
05:41PM 42.6181 -91.9611 258° West 163 188 4,100 -540 Descending Chicago Center
05:42PM 42.6086 -92.0292 259° West 159 183 3,500 -540 Descending Chicago Center
05:43PM 42.6008 -92.0858 259° West 155 178 3,000 -480 Descending Chicago Center
05:44PM 42.5922 -92.1428 258° West 155 178 2,600 -300 Descending Chicago Center
05:45PM 42.5839 -92.1997 259° West 155 178 2,500 -120 Descending Chicago Center
05:46PM 42.5764 -92.2511 259° West 149 171 2,400 -300 Descending Chicago Center
05:47PM 42.5589 -92.3106 248° West 144 166 2,000 -480 Descending Chicago Center
05:48PM 42.5425 -92.3558 244° Southwest 141 162 1,500 -420 Descending Chicago Center
05:49PM 42.5347 -92.3861 251° West 128 147 1,200 -300 Descending Chicago Center
05:51PM 42.5500 -92.4000 270° West  Level FlightAware Approximate
05:58PM 42.5571 -92.4003 270° West  Level Estimated